createdAt,value
2022-12-29T00:00:23.971Z,287.00
2022-12-29T00:01:23.891Z,287.00
2022-12-29T00:02:23.885Z,287.00
2022-12-29T00:03:23.914Z,286.00
2022-12-29T00:04:23.820Z,287.00
2022-12-29T00:05:23.766Z,286.00
2022-12-29T00:06:23.744Z,286.00
2022-12-29T00:07:23.715Z,284.00
2022-12-29T00:08:23.691Z,283.00
2022-12-29T00:09:23.651Z,282.00
2022-12-29T00:10:23.624Z,282.00
2022-12-29T00:11:23.595Z,282.00
2022-12-29T00:12:23.578Z,281.00
2022-12-29T00:13:23.540Z,282.00
2022-12-29T00:14:26.206Z,280.00
2022-12-29T00:15:23.485Z,278.00
2022-12-29T00:16:23.537Z,279.00
2022-12-29T00:17:23.428Z,283.00
2022-12-29T00:18:23.400Z,284.00
2022-12-29T00:19:23.374Z,285.00
2022-12-29T00:20:23.334Z,285.00
2022-12-29T00:21:23.305Z,284.00
2022-12-29T00:22:23.293Z,283.00
2022-12-29T00:23:23.261Z,285.00
2022-12-29T00:24:23.236Z,286.00
2022-12-29T00:25:23.198Z,287.00
2022-12-29T00:26:23.193Z,286.00
2022-12-29T00:27:23.145Z,283.00
2022-12-29T00:28:23.132Z,284.00
2022-12-29T00:29:23.086Z,287.00
2022-12-29T00:30:23.070Z,288.00
2022-12-29T00:31:23.140Z,287.00
2022-12-29T00:32:23.008Z,285.00
2022-12-29T00:33:22.983Z,286.00
2022-12-29T00:34:22.955Z,287.00
2022-12-29T00:35:22.934Z,283.00
2022-12-29T00:36:22.904Z,285.00
2022-12-29T00:37:22.868Z,287.00
2022-12-29T00:38:22.848Z,287.00
2022-12-29T00:39:22.818Z,286.00
2022-12-29T00:40:22.785Z,283.00
2022-12-29T00:41:22.761Z,281.00
2022-12-29T00:42:22.727Z,281.00
2022-12-29T00:43:22.700Z,283.00
2022-12-29T00:44:22.669Z,284.00
2022-12-29T00:45:22.625Z,285.00
2022-12-29T00:46:22.671Z,283.00
2022-12-29T00:47:22.565Z,280.00
2022-12-29T00:48:22.539Z,281.00
2022-12-29T00:49:22.504Z,281.00
2022-12-29T00:50:22.477Z,281.00
2022-12-29T00:51:22.431Z,281.00
2022-12-29T00:52:22.407Z,284.00
2022-12-29T00:53:22.377Z,285.00
2022-12-29T00:54:22.342Z,289.00
2022-12-29T00:55:22.315Z,288.00
2022-12-29T00:56:22.273Z,286.00
2022-12-29T00:57:22.276Z,284.00
2022-12-29T00:58:22.217Z,282.00
2022-12-29T00:59:22.194Z,283.00
2022-12-29T01:00:22.157Z,284.00
2022-12-29T01:01:22.291Z,283.00
2022-12-29T01:02:22.204Z,280.00
2022-12-29T01:03:22.217Z,278.00
2022-12-29T01:04:22.072Z,282.00
2022-12-29T01:05:22.029Z,283.00
2022-12-29T01:06:21.999Z,284.00
2022-12-29T01:07:21.977Z,285.00
2022-12-29T01:08:21.952Z,283.00
2022-12-29T01:09:21.913Z,283.00
2022-12-29T01:10:21.892Z,283.00
2022-12-29T01:11:21.850Z,282.00
2022-12-29T01:12:21.827Z,282.00
2022-12-29T01:13:21.799Z,281.00
2022-12-29T01:14:21.763Z,282.00
2022-12-29T01:15:21.747Z,283.00
2022-12-29T01:16:21.779Z,284.00
2022-12-29T01:17:21.675Z,289.00
2022-12-29T01:18:21.689Z,289.00
2022-12-29T01:19:21.623Z,285.00
2022-12-29T01:20:21.594Z,280.00
2022-12-29T01:21:21.560Z,277.00
2022-12-29T01:22:21.541Z,275.00
2022-12-29T01:23:21.495Z,278.00
2022-12-29T01:24:21.464Z,278.00
2022-12-29T01:25:21.456Z,276.00
2022-12-29T01:26:21.412Z,273.00
2022-12-29T01:27:21.369Z,276.00
2022-12-29T01:28:25.928Z,277.00
2022-12-29T01:29:22.309Z,278.00
2022-12-29T01:30:21.279Z,278.00
2022-12-29T01:31:21.293Z,278.00
2022-12-29T01:32:21.235Z,279.00
2022-12-29T01:33:21.197Z,283.00
2022-12-29T01:34:21.163Z,286.00
2022-12-29T01:35:21.120Z,287.00
2022-12-29T01:36:21.096Z,287.00
2022-12-29T01:37:21.070Z,284.00
2022-12-29T02:26:19.643Z,285.00
2022-12-29T02:27:19.639Z,286.00
2022-12-29T02:28:19.581Z,284.00
2022-12-29T02:29:19.564Z,285.00
2022-12-29T02:32:19.463Z,286.00
2022-12-29T02:33:19.440Z,287.00
2022-12-29T02:34:19.440Z,288.00
2022-12-29T02:35:19.385Z,289.00
2022-12-29T02:36:19.352Z,291.00
2022-12-29T02:37:19.323Z,292.00
2022-12-29T02:38:19.301Z,292.00
2022-12-29T02:39:19.268Z,290.00
2022-12-29T02:40:19.242Z,291.00
2022-12-29T02:41:19.196Z,292.00
2022-12-29T02:42:19.194Z,290.00
2022-12-29T02:43:19.127Z,289.00
2022-12-29T02:44:19.248Z,290.00
2022-12-29T02:45:19.072Z,289.00
2022-12-29T02:46:19.086Z,290.00
2022-12-29T02:47:19.015Z,290.00
2022-12-29T02:48:18.986Z,288.00
2022-12-29T02:49:18.957Z,289.00
2022-12-29T02:50:18.922Z,291.00
2022-12-29T02:51:18.888Z,290.00
2022-12-29T02:52:18.871Z,290.00
2022-12-29T02:53:18.835Z,289.00
2022-12-29T02:54:18.791Z,289.00
2022-12-29T02:55:18.769Z,289.00
2022-12-29T02:56:18.736Z,290.00
2022-12-29T02:57:18.714Z,289.00
2022-12-29T02:58:18.689Z,288.00
2022-12-29T02:59:18.656Z,288.00
2022-12-29T03:00:18.636Z,288.00
2022-12-29T03:01:18.751Z,291.00
2022-12-29T03:02:18.820Z,291.00
2022-12-29T03:03:18.590Z,291.00
2022-12-29T03:04:18.522Z,294.00
2022-12-29T03:05:18.507Z,294.00
2022-12-29T03:06:18.466Z,295.00
2022-12-29T03:07:18.441Z,296.00
2022-12-29T03:08:18.410Z,298.00
2022-12-29T03:09:19.416Z,297.00
2022-12-29T03:10:18.369Z,295.00
2022-12-29T03:11:18.364Z,297.00
2022-12-29T03:12:18.301Z,298.00
2022-12-29T03:13:18.270Z,298.00
2022-12-29T03:14:18.238Z,299.00
2022-12-29T03:15:18.408Z,294.00
2022-12-29T03:16:18.228Z,291.00
2022-12-29T03:17:18.216Z,287.00
2022-12-29T03:18:18.148Z,286.00
2022-12-29T03:19:18.110Z,284.00
2022-12-29T03:20:18.093Z,288.00
2022-12-29T03:21:18.069Z,288.00
2022-12-29T03:22:18.039Z,291.00
2022-12-29T03:23:17.993Z,288.00
2022-12-29T03:24:17.978Z,287.00
2022-12-29T03:25:17.939Z,286.00
2022-12-29T03:26:17.918Z,287.00
2022-12-29T03:27:17.884Z,289.00
2022-12-29T03:28:17.856Z,289.00
2022-12-29T03:29:17.837Z,289.00
2022-12-29T03:30:17.802Z,292.00
2022-12-29T03:31:17.807Z,292.00
2022-12-29T03:32:17.753Z,291.00
2022-12-29T03:33:17.719Z,295.00
2022-12-29T03:34:17.698Z,295.00
2022-12-29T03:35:17.677Z,294.00
2022-12-29T03:36:17.650Z,293.00
2022-12-29T03:37:17.629Z,292.00
2022-12-29T03:38:18.458Z,289.00
2022-12-29T03:39:17.565Z,288.00
2022-12-29T03:40:17.537Z,286.00
2022-12-29T03:41:17.506Z,288.00
2022-12-29T03:42:17.488Z,289.00
2022-12-29T03:43:17.458Z,289.00
2022-12-29T03:44:17.427Z,291.00
2022-12-29T03:45:17.406Z,290.00
2022-12-29T03:46:17.405Z,290.00
2022-12-29T03:47:17.355Z,289.00
2022-12-29T03:48:17.339Z,288.00
2022-12-29T03:49:17.293Z,291.00
2022-12-29T03:50:17.273Z,292.00
2022-12-29T03:51:17.248Z,294.00
2022-12-29T03:52:17.247Z,294.00
2022-12-29T03:53:17.228Z,294.00
2022-12-29T03:54:17.197Z,291.00
2022-12-29T03:55:17.149Z,290.00
2022-12-29T03:56:17.183Z,290.00
2022-12-29T03:57:17.116Z,286.00
2022-12-29T03:58:17.123Z,284.00
2022-12-29T03:59:17.049Z,283.00
2022-12-29T04:00:17.023Z,285.00
2022-12-29T04:01:17.206Z,287.00
2022-12-29T04:02:17.150Z,285.00
2022-12-29T04:03:17.040Z,284.00
2022-12-29T04:04:16.923Z,285.00
2022-12-29T04:05:16.891Z,285.00
2022-12-29T04:06:16.881Z,286.00
2022-12-29T04:07:16.860Z,285.00
2022-12-29T04:08:16.833Z,286.00
2022-12-29T04:09:16.803Z,287.00
2022-12-29T04:10:16.786Z,286.00
2022-12-29T04:11:16.757Z,288.00
2022-12-29T04:12:16.732Z,289.00
2022-12-29T04:13:16.719Z,291.00
2022-12-29T04:14:16.681Z,291.00
2022-12-29T04:15:16.654Z,290.00
2022-12-29T04:16:16.669Z,288.00
2022-12-29T04:17:16.592Z,289.00
2022-12-29T04:18:16.568Z,290.00
2022-12-29T04:19:16.543Z,289.00
2022-12-29T04:20:16.534Z,290.00
2022-12-29T04:21:16.525Z,291.00
2022-12-29T04:22:16.495Z,291.00
2022-12-29T04:23:16.465Z,290.00
2022-12-29T04:24:16.432Z,287.00
2022-12-29T04:25:16.400Z,286.00
2022-12-29T04:26:16.359Z,284.00
2022-12-29T04:27:16.333Z,286.00
2022-12-29T04:28:16.306Z,288.00
2022-12-29T04:29:16.269Z,287.00
2022-12-29T04:30:16.264Z,286.00
2022-12-29T04:31:16.276Z,283.00
2022-12-29T04:32:16.211Z,285.00
2022-12-29T04:33:16.175Z,286.00
2022-12-29T04:34:16.156Z,286.00
2022-12-29T04:35:16.127Z,283.00
2022-12-29T04:36:16.106Z,284.00
2022-12-29T04:37:16.167Z,288.00
2022-12-29T04:38:16.131Z,286.00
2022-12-29T04:39:16.108Z,286.00
2022-12-29T04:40:16.071Z,287.00
2022-12-29T04:41:16.044Z,289.00
2022-12-29T04:42:16.019Z,288.00
2022-12-29T04:43:15.996Z,288.00
2022-12-29T04:44:15.970Z,286.00
2022-12-29T04:45:15.943Z,285.00
2022-12-29T04:46:15.951Z,284.00
2022-12-29T04:47:15.893Z,283.00
2022-12-29T04:48:15.871Z,283.00
2022-12-29T04:49:15.844Z,283.00
2022-12-29T04:50:15.818Z,284.00
2022-12-29T04:51:15.779Z,284.00
2022-12-29T04:52:15.754Z,285.00
2022-12-29T04:53:15.717Z,284.00
2022-12-29T04:54:15.697Z,286.00
2022-12-29T04:55:15.654Z,284.00
2022-12-29T04:56:15.621Z,286.00
2022-12-29T04:57:15.591Z,285.00
2022-12-29T04:58:20.845Z,285.00
2022-12-29T04:59:16.556Z,285.00
2022-12-29T05:00:15.497Z,285.00
2022-12-29T05:01:15.622Z,287.00
2022-12-29T05:02:15.611Z,290.00
2022-12-29T05:03:15.522Z,289.00
2022-12-29T05:04:15.383Z,288.00
2022-12-29T05:05:15.356Z,286.00
2022-12-29T05:06:15.311Z,285.00
2022-12-29T05:07:15.279Z,284.00
2022-12-29T05:08:15.262Z,283.00
2022-12-29T05:09:15.222Z,282.00
2022-12-29T05:10:15.195Z,283.00
2022-12-29T05:11:15.162Z,285.00
2022-12-29T05:12:15.162Z,284.00
2022-12-29T05:13:15.111Z,282.00
2022-12-29T05:14:15.093Z,282.00
2022-12-29T05:15:15.060Z,282.00
2022-12-29T05:16:15.075Z,281.00
2022-12-29T05:17:15.013Z,278.00
2022-12-29T05:18:14.977Z,281.00
2022-12-29T05:19:14.953Z,284.00
2022-12-29T05:20:14.925Z,283.00
2022-12-29T05:21:14.889Z,283.00
2022-12-29T05:22:14.874Z,281.00
2022-12-29T05:23:14.854Z,280.00
2022-12-29T05:24:14.804Z,284.00
2022-12-29T05:25:14.775Z,285.00
2022-12-29T05:26:14.730Z,285.00
2022-12-29T05:27:14.722Z,286.00
2022-12-29T05:28:14.678Z,285.00
2022-12-29T05:29:14.651Z,287.00
2022-12-29T05:30:14.635Z,287.00
2022-12-29T05:31:14.666Z,287.00
2022-12-29T05:32:14.550Z,287.00
2022-12-29T05:33:14.519Z,289.00
2022-12-29T05:34:14.485Z,290.00
2022-12-29T05:35:14.457Z,293.00
2022-12-29T05:36:14.489Z,292.00
2022-12-29T05:37:14.394Z,292.00
2022-12-29T05:38:14.363Z,293.00
2022-12-29T05:39:14.331Z,293.00
2022-12-29T05:40:14.303Z,292.00
2022-12-29T05:41:14.343Z,292.00
2022-12-29T05:42:14.235Z,291.00
2022-12-29T05:43:14.208Z,292.00
2022-12-29T05:44:14.174Z,292.00
2022-12-29T05:45:14.154Z,292.00
2022-12-29T05:46:14.235Z,289.00
2022-12-29T05:47:14.258Z,288.00
2022-12-29T05:48:14.052Z,288.00
2022-12-29T05:49:14.022Z,289.00
2022-12-29T05:50:14.046Z,289.00
2022-12-29T05:51:13.952Z,289.00
2022-12-29T05:52:13.933Z,288.00
2022-12-29T05:53:13.895Z,287.00
2022-12-29T05:54:13.865Z,286.00
2022-12-29T05:55:13.856Z,286.00
2022-12-29T05:56:13.809Z,285.00
2022-12-29T05:57:13.772Z,286.00
2022-12-29T05:58:13.759Z,288.00
2022-12-29T05:59:13.723Z,290.00
2022-12-29T06:00:13.721Z,291.00
2022-12-29T06:01:13.673Z,293.00
2022-12-29T06:02:13.768Z,294.00
2022-12-29T06:03:13.761Z,296.00
2022-12-29T06:04:13.586Z,292.00
2022-12-29T06:05:13.561Z,286.00
2022-12-29T06:06:13.545Z,280.00
2022-12-29T06:07:13.509Z,281.00
2022-12-29T06:08:13.482Z,284.00
2022-12-29T06:09:13.451Z,282.00
2022-12-29T06:10:13.428Z,284.00
2022-12-29T06:11:13.387Z,286.00
2022-12-29T06:12:13.362Z,283.00
2022-12-29T06:13:13.338Z,284.00
2022-12-29T06:14:13.314Z,286.00
2022-12-29T06:15:13.279Z,286.00
2022-12-29T06:16:13.278Z,287.00
2022-12-29T06:17:13.224Z,285.00
2022-12-29T06:18:19.568Z,284.00
2022-12-29T06:19:14.163Z,285.00
2022-12-29T06:20:13.141Z,286.00
2022-12-29T06:21:13.109Z,287.00
2022-12-29T06:22:13.155Z,289.00
2022-12-29T06:23:13.054Z,287.00
2022-12-29T06:24:13.033Z,287.00
2022-12-29T06:25:12.996Z,290.00
2022-12-29T06:26:12.972Z,290.00
2022-12-29T06:27:12.947Z,289.00
2022-12-29T06:28:12.932Z,287.00
2022-12-29T06:29:12.884Z,284.00
2022-12-29T06:30:12.872Z,283.00
2022-12-29T06:31:12.908Z,285.00
2022-12-29T06:32:12.908Z,287.00
2022-12-29T06:33:12.767Z,287.00
2022-12-29T06:34:12.740Z,289.00
2022-12-29T06:35:12.713Z,291.00
2022-12-29T06:36:12.691Z,291.00
2022-12-29T06:37:12.655Z,291.00
2022-12-29T06:38:12.636Z,294.00
2022-12-29T06:39:12.603Z,293.00
2022-12-29T06:40:12.571Z,295.00
2022-12-29T06:41:12.547Z,296.00
2022-12-29T06:42:12.529Z,296.00
2022-12-29T06:43:12.514Z,296.00
2022-12-29T06:44:12.519Z,295.00
2022-12-29T06:45:12.445Z,295.00
2022-12-29T06:46:12.606Z,297.00
2022-12-29T06:47:12.383Z,292.00
2022-12-29T06:48:12.351Z,293.00
2022-12-29T06:49:12.319Z,292.00
2022-12-29T06:50:12.308Z,292.00
2022-12-29T06:51:12.256Z,288.00
2022-12-29T06:52:13.203Z,290.00
2022-12-29T06:53:12.213Z,289.00
2022-12-29T06:54:12.175Z,289.00
2022-12-29T06:55:12.171Z,289.00
2022-12-29T06:56:12.101Z,288.00
2022-12-29T06:57:12.067Z,289.00
2022-12-29T06:58:12.049Z,290.00
2022-12-29T06:59:12.004Z,291.00
2022-12-29T07:00:11.993Z,291.00
2022-12-29T07:01:12.010Z,292.00
2022-12-29T07:02:12.105Z,292.00
2022-12-29T07:03:11.956Z,294.00
2022-12-29T07:04:11.868Z,293.00
2022-12-29T07:05:11.838Z,294.00
2022-12-29T07:06:11.812Z,294.00
2022-12-29T07:07:11.777Z,295.00
2022-12-29T07:08:11.748Z,295.00
2022-12-29T07:09:11.728Z,297.00
2022-12-29T07:10:11.708Z,299.00
2022-12-29T07:11:11.663Z,297.00
2022-12-29T07:12:11.643Z,297.00
2022-12-29T07:13:11.606Z,295.00
2022-12-29T07:14:11.573Z,294.00
2022-12-29T07:15:11.547Z,294.00
2022-12-29T07:16:11.565Z,296.00
2022-12-29T07:17:11.578Z,295.00
2022-12-29T07:18:11.456Z,295.00
2022-12-29T07:19:11.421Z,293.00
2022-12-29T07:20:11.389Z,294.00
2022-12-29T07:21:11.354Z,293.00
2022-12-29T07:22:11.333Z,289.00
2022-12-29T07:23:11.311Z,290.00
2022-12-29T07:24:11.312Z,293.00
2022-12-29T07:25:11.248Z,295.00
2022-12-29T07:26:11.213Z,296.00
2022-12-29T07:27:11.180Z,296.00
2022-12-29T07:28:11.164Z,293.00
2022-12-29T07:29:11.128Z,293.00
2022-12-29T07:30:11.094Z,291.00
2022-12-29T07:31:11.058Z,293.00
2022-12-29T07:32:11.085Z,291.00
2022-12-29T07:33:10.991Z,288.00
2022-12-29T07:34:10.982Z,292.00
2022-12-29T07:35:10.935Z,290.00
2022-12-29T07:36:10.912Z,291.00
2022-12-29T07:37:10.866Z,291.00
2022-12-29T07:38:10.837Z,289.00
2022-12-29T07:39:10.813Z,288.00
2022-12-29T07:40:10.776Z,290.00
2022-12-29T07:41:10.744Z,289.00
2022-12-29T07:42:10.715Z,289.00
2022-12-29T07:43:10.693Z,290.00
2022-12-29T07:44:10.693Z,292.00
2022-12-29T07:45:10.633Z,292.00
2022-12-29T07:46:17.473Z,290.00
2022-12-29T07:47:11.647Z,288.00
2022-12-29T07:48:10.641Z,289.00
2022-12-29T07:49:10.529Z,290.00
2022-12-29T07:50:10.517Z,290.00
2022-12-29T07:51:10.477Z,289.00
2022-12-29T07:52:10.452Z,289.00
2022-12-29T07:53:10.438Z,289.00
2022-12-29T07:54:10.402Z,292.00
2022-12-29T07:55:10.377Z,288.00
2022-12-29T07:56:10.369Z,287.00
2022-12-29T07:57:10.340Z,287.00
2022-12-29T07:58:10.309Z,286.00
2022-12-29T07:59:10.274Z,290.00
2022-12-29T08:00:10.247Z,290.00
2022-12-29T08:01:10.289Z,293.00
2022-12-29T08:02:10.308Z,294.00
2022-12-29T08:03:10.214Z,293.00
2022-12-29T08:04:10.215Z,296.00
2022-12-29T08:05:10.156Z,293.00
2022-12-29T08:06:10.101Z,292.00
2022-12-29T08:07:10.095Z,292.00
2022-12-29T08:08:10.058Z,293.00
2022-12-29T08:09:16.384Z,293.00
2022-12-29T08:10:10.982Z,293.00
2022-12-29T08:11:09.953Z,291.00
2022-12-29T08:12:09.928Z,287.00
2022-12-29T08:13:09.917Z,288.00
2022-12-29T08:14:09.883Z,286.00
2022-12-29T08:15:09.864Z,290.00
2022-12-29T08:16:09.972Z,290.00
2022-12-29T08:17:09.803Z,291.00
2022-12-29T08:18:09.786Z,289.00
2022-12-29T08:19:09.753Z,292.00
2022-12-29T08:20:09.731Z,291.00
2022-12-29T08:21:09.702Z,293.00
2022-12-29T08:22:09.680Z,292.00
2022-12-29T08:23:09.654Z,292.00
2022-12-29T08:24:09.625Z,294.00
2022-12-29T08:25:09.608Z,297.00
2022-12-29T08:26:09.565Z,297.00
2022-12-29T08:27:18.160Z,299.00
2022-12-29T08:28:10.511Z,295.00
2022-12-29T08:29:09.492Z,293.00
2022-12-29T08:30:09.465Z,292.00
2022-12-29T08:31:09.470Z,292.00
2022-12-29T08:32:09.401Z,290.00
2022-12-29T08:33:09.368Z,293.00
2022-12-29T08:34:09.334Z,295.00
2022-12-29T08:35:09.316Z,295.00
2022-12-29T08:36:09.279Z,297.00
2022-12-29T08:37:09.264Z,296.00
2022-12-29T08:38:09.233Z,296.00
2022-12-29T08:39:09.206Z,294.00
2022-12-29T08:40:09.173Z,294.00
2022-12-29T08:41:09.149Z,292.00
2022-12-29T08:42:09.116Z,289.00
2022-12-29T08:43:09.080Z,288.00
2022-12-29T08:44:09.054Z,286.00
2022-12-29T08:45:09.032Z,285.00
2022-12-29T08:46:09.019Z,288.00
2022-12-29T08:47:08.993Z,286.00
2022-12-29T08:48:08.942Z,289.00
2022-12-29T08:49:08.918Z,290.00
2022-12-29T08:50:08.882Z,289.00
2022-12-29T08:51:08.893Z,286.00
2022-12-29T08:52:08.824Z,288.00
2022-12-29T08:53:08.791Z,290.00
2022-12-29T08:54:08.763Z,289.00
2022-12-29T08:55:08.737Z,289.00
2022-12-29T08:56:08.717Z,289.00
2022-12-29T08:57:08.684Z,290.00
2022-12-29T08:58:08.653Z,287.00
2022-12-29T08:59:08.622Z,287.00
2022-12-29T09:00:08.592Z,290.00
2022-12-29T09:01:08.652Z,291.00
2022-12-29T09:02:08.732Z,289.00
2022-12-29T09:03:08.669Z,286.00
2022-12-29T09:04:17.303Z,288.00
2022-12-29T09:05:09.495Z,286.00
2022-12-29T09:06:08.417Z,282.00
2022-12-29T09:07:08.366Z,283.00
2022-12-29T09:08:08.329Z,282.00
2022-12-29T09:09:08.309Z,284.00
2022-12-29T09:10:08.268Z,285.00
2022-12-29T09:11:08.240Z,283.00
2022-12-29T09:12:08.204Z,286.00
2022-12-29T09:13:08.183Z,289.00
2022-12-29T09:14:08.140Z,289.00
2022-12-29T09:15:08.112Z,288.00
2022-12-29T09:16:08.164Z,289.00
2022-12-29T09:17:08.055Z,288.00
2022-12-29T09:18:08.038Z,288.00
2022-12-29T09:19:08.012Z,290.00
2022-12-29T09:20:07.970Z,288.00
2022-12-29T09:21:07.941Z,286.00
2022-12-29T09:22:07.909Z,283.00
2022-12-29T09:23:07.886Z,284.00
2022-12-29T09:24:07.850Z,287.00
2022-12-29T09:25:07.823Z,289.00
2022-12-29T09:26:07.789Z,289.00
2022-12-29T09:27:07.759Z,287.00
2022-12-29T09:28:07.729Z,289.00
2022-12-29T09:29:07.713Z,290.00
2022-12-29T09:30:07.680Z,288.00
2022-12-29T09:31:07.708Z,286.00
2022-12-29T09:32:08.033Z,285.00
2022-12-29T09:33:07.585Z,284.00
2022-12-29T09:34:07.557Z,282.00
2022-12-29T09:35:07.529Z,286.00
2022-12-29T09:36:07.487Z,286.00
2022-12-29T09:37:07.470Z,287.00
2022-12-29T09:38:07.436Z,287.00
2022-12-29T09:39:07.410Z,289.00
2022-12-29T09:40:07.388Z,290.00
2022-12-29T09:41:07.373Z,288.00
2022-12-29T09:42:07.327Z,285.00
2022-12-29T09:43:07.291Z,284.00
2022-12-29T09:44:07.258Z,285.00
2022-12-29T09:45:07.224Z,285.00
2022-12-29T09:46:07.192Z,286.00
2022-12-29T09:47:07.207Z,287.00
2022-12-29T09:48:09.835Z,287.00
2022-12-29T09:49:07.086Z,286.00
2022-12-29T09:50:07.045Z,287.00
2022-12-29T09:51:07.013Z,289.00
2022-12-29T09:52:06.990Z,289.00
2022-12-29T09:53:06.939Z,289.00
2022-12-29T09:54:06.900Z,289.00
2022-12-29T09:55:13.542Z,289.00
2022-12-29T09:56:07.829Z,291.00
2022-12-29T09:57:06.799Z,292.00
2022-12-29T09:58:06.750Z,292.00
2022-12-29T09:59:06.729Z,292.00
2022-12-29T10:00:06.682Z,290.00
2022-12-29T10:01:06.703Z,291.00
2022-12-29T10:02:06.859Z,290.00
2022-12-29T10:03:06.738Z,290.00
2022-12-29T10:04:06.554Z,291.00
2022-12-29T10:05:06.535Z,292.00
2022-12-29T10:06:06.490Z,295.00
2022-12-29T10:07:34.668Z,294.00
2022-12-29T10:08:10.231Z,296.00
2022-12-29T10:09:07.409Z,296.00
2022-12-29T10:10:06.396Z,297.00
2022-12-29T10:11:06.351Z,296.00
2022-12-29T10:12:06.317Z,292.00
2022-12-29T10:13:06.277Z,296.00
2022-12-29T10:14:09.557Z,295.00
2022-12-29T10:15:07.217Z,294.00
2022-12-29T10:16:06.207Z,295.00
2022-12-29T10:17:06.144Z,298.00
2022-12-29T10:18:06.102Z,298.00
2022-12-29T10:19:06.093Z,298.00
2022-12-29T10:20:06.033Z,297.00
2022-12-29T10:21:05.999Z,293.00
2022-12-29T10:22:05.963Z,296.00
2022-12-29T10:23:05.935Z,295.00
2022-12-29T10:24:05.910Z,296.00
2022-12-29T10:25:05.865Z,295.00
2022-12-29T10:26:05.834Z,295.00
2022-12-29T10:27:05.807Z,296.00
2022-12-29T10:28:05.770Z,295.00
2022-12-29T10:29:05.745Z,297.00
2022-12-29T10:30:05.718Z,295.00
2022-12-29T10:31:08.886Z,295.00
2022-12-29T10:32:05.744Z,292.00
2022-12-29T10:33:05.648Z,292.00
2022-12-29T10:34:05.596Z,291.00
2022-12-29T10:35:05.585Z,289.00
2022-12-29T10:36:05.522Z,287.00
2022-12-29T10:37:05.497Z,287.00
2022-12-29T10:38:05.467Z,286.00
2022-12-29T10:39:05.439Z,287.00
2022-12-29T10:40:05.397Z,288.00
2022-12-29T10:41:05.373Z,291.00
2022-12-29T10:42:05.320Z,292.00
2022-12-29T10:43:05.288Z,294.00
2022-12-29T10:44:05.265Z,292.00
2022-12-29T10:45:05.219Z,291.00
2022-12-29T10:46:05.210Z,295.00
2022-12-29T10:47:05.152Z,298.00
2022-12-29T10:48:05.146Z,298.00
2022-12-29T10:49:05.095Z,297.00
2022-12-29T10:50:05.058Z,298.00
2022-12-29T10:51:05.022Z,297.00
2022-12-29T10:52:04.995Z,300.00
2022-12-29T10:53:04.972Z,300.00
2022-12-29T10:54:04.934Z,300.00
2022-12-29T10:55:04.992Z,300.00
2022-12-29T10:56:04.882Z,299.00
2022-12-29T10:57:04.865Z,297.00
2022-12-29T10:58:04.821Z,298.00
2022-12-29T10:59:04.763Z,299.00
2022-12-29T11:00:04.727Z,301.00
2022-12-29T11:01:04.763Z,302.00
2022-12-29T11:02:04.813Z,302.00
2022-12-29T11:03:04.815Z,301.00
2022-12-29T11:04:04.617Z,302.00
2022-12-29T11:05:04.662Z,301.00
2022-12-29T11:06:04.519Z,302.00
2022-12-29T11:07:04.494Z,302.00
2022-12-29T11:08:04.460Z,302.00
2022-12-29T11:09:04.446Z,301.00
2022-12-29T11:10:04.397Z,300.00
2022-12-29T11:11:04.368Z,299.00
2022-12-29T11:12:04.336Z,299.00
2022-12-29T11:13:04.317Z,297.00
2022-12-29T11:14:04.271Z,296.00
2022-12-29T11:15:04.234Z,297.00
2022-12-29T11:16:04.249Z,295.00
2022-12-29T11:17:04.177Z,294.00
2022-12-29T11:18:04.140Z,295.00
2022-12-29T11:19:04.119Z,296.00
2022-12-29T11:20:04.100Z,296.00
2022-12-29T11:21:04.099Z,297.00
2022-12-29T11:22:04.011Z,295.00
2022-12-29T11:23:04.000Z,297.00
2022-12-29T11:24:03.952Z,298.00
2022-12-29T11:25:03.930Z,299.00
2022-12-29T11:26:03.879Z,299.00
2022-12-29T11:27:03.842Z,302.00
2022-12-29T11:28:03.810Z,303.00
2022-12-29T11:29:03.779Z,302.00
2022-12-29T11:30:03.763Z,299.00
2022-12-29T11:31:03.709Z,299.00
2022-12-29T11:32:03.767Z,297.00
2022-12-29T11:33:03.647Z,296.00
2022-12-29T11:34:03.600Z,298.00
2022-12-29T11:35:03.569Z,301.00
2022-12-29T11:36:03.536Z,300.00
2022-12-29T11:37:03.517Z,298.00
2022-12-29T11:38:03.475Z,299.00
2022-12-29T11:39:04.836Z,298.00
2022-12-29T11:40:03.399Z,298.00
2022-12-29T11:41:03.376Z,299.00
2022-12-29T11:42:03.324Z,298.00
2022-12-29T11:43:03.289Z,297.00
2022-12-29T11:44:03.262Z,300.00
2022-12-29T11:45:07.625Z,300.00
2022-12-29T11:46:04.222Z,297.00
2022-12-29T11:47:03.148Z,294.00
2022-12-29T11:48:03.138Z,293.00
2022-12-29T11:49:03.071Z,292.00
2022-12-29T11:50:03.018Z,295.00
2022-12-29T11:51:03.011Z,296.00
2022-12-29T11:52:02.950Z,299.00
2022-12-29T11:53:02.920Z,298.00
2022-12-29T11:54:02.883Z,297.00
2022-12-29T11:55:02.863Z,297.00
2022-12-29T11:56:02.807Z,297.00
2022-12-29T11:57:02.765Z,297.00
2022-12-29T11:58:02.746Z,296.00
2022-12-29T11:59:02.705Z,295.00
2022-12-29T12:00:02.671Z,296.00
2022-12-29T12:01:02.623Z,296.00
2022-12-29T12:02:02.693Z,299.00
2022-12-29T12:03:02.814Z,300.00
2022-12-29T12:04:02.563Z,299.00
2022-12-29T12:05:02.489Z,299.00
2022-12-29T12:06:02.488Z,299.00
2022-12-29T12:07:02.444Z,302.00
2022-12-29T12:08:02.392Z,301.00
2022-12-29T12:09:02.363Z,300.00
2022-12-29T12:10:07.463Z,299.00
2022-12-29T12:12:02.260Z,306.00
2022-12-29T12:13:02.216Z,304.00
2022-12-29T12:14:02.207Z,302.00
2022-12-29T12:15:02.184Z,301.00
2022-12-29T12:16:02.209Z,303.00
2022-12-29T12:17:02.095Z,305.00
2022-12-29T12:18:02.070Z,307.00
2022-12-29T12:19:02.031Z,306.00
2022-12-29T12:20:01.998Z,307.00
2022-12-29T12:21:01.940Z,307.00
2022-12-29T12:22:01.917Z,306.00
2022-12-29T12:23:01.873Z,306.00
2022-12-29T12:24:01.851Z,306.00
2022-12-29T12:25:01.822Z,306.00
2022-12-29T12:26:01.779Z,303.00
2022-12-29T12:27:01.747Z,304.00
2022-12-29T12:28:01.717Z,304.00
2022-12-29T12:29:01.676Z,305.00
2022-12-29T12:30:01.649Z,305.00
2022-12-29T12:31:01.692Z,305.00
2022-12-29T12:32:01.577Z,304.00
2022-12-29T12:33:01.546Z,307.00
2022-12-29T12:34:01.511Z,309.00
2022-12-29T12:35:01.481Z,309.00
2022-12-29T12:36:01.452Z,312.00
2022-12-29T12:37:01.396Z,308.00
2022-12-29T12:38:01.402Z,310.00
2022-12-29T12:39:01.363Z,310.00
2022-12-29T12:40:01.300Z,311.00
2022-12-29T12:41:01.263Z,314.00
2022-12-29T12:42:01.239Z,314.00
2022-12-29T12:43:01.196Z,312.00
2022-12-29T12:44:01.159Z,310.00
2022-12-29T12:45:01.124Z,313.00
2022-12-29T12:46:01.174Z,312.00
2022-12-29T12:47:01.063Z,311.00
2022-12-29T15:45:54.886Z,319.00
2022-12-29T16:05:53.957Z,315.00
2022-12-29T16:19:53.392Z,323.00
2022-12-29T17:06:51.692Z,337.00
2022-12-29T17:07:51.664Z,339.00
2022-12-29T17:08:51.627Z,342.00
2022-12-29T17:09:51.593Z,343.00
2022-12-29T17:10:51.560Z,343.00
2022-12-29T17:11:58.342Z,341.00
2022-12-29T17:12:52.494Z,342.00
2022-12-29T17:13:51.468Z,343.00
2022-12-29T17:14:51.425Z,345.00
2022-12-29T17:15:51.439Z,344.00
2022-12-29T17:16:51.382Z,344.00
2022-12-29T17:17:51.332Z,345.00
2022-12-29T17:18:51.310Z,343.00
2022-12-29T17:19:51.305Z,341.00
2022-12-29T17:20:51.273Z,343.00
2022-12-29T17:21:51.214Z,345.00
2022-12-29T17:22:51.206Z,346.00
2022-12-29T17:23:51.177Z,348.00
2022-12-29T17:24:51.131Z,346.00
2022-12-29T17:25:51.116Z,348.00
2022-12-29T17:26:51.086Z,346.00
2022-12-29T17:27:51.052Z,344.00
2022-12-29T21:20:44.116Z,414.00
2022-12-29T21:21:44.090Z,414.00
2022-12-29T21:22:44.055Z,415.00
2022-12-29T21:23:44.025Z,418.00
2022-12-29T21:24:43.993Z,414.00
2022-12-29T21:25:43.963Z,414.00
2022-12-29T21:26:43.940Z,410.00